METAR Data
IDs: Format: Raw Decoded Include TAF

Data at: 1543 UTC 03 Dec 2021

YMML 031530Z 24006KT 9999 BKN034 11/09 Q1018